sensor_id;sensor_type;location;lat;lon;timestamp;P1;durP1;ratioP1;P2;durP2;ratioP2
76788;SDS011;65740;52.464;13.446;2023-02-03T00:01:42;3.50;;;3.30;;
76788;SDS011;65740;52.464;13.446;2023-02-03T00:04:08;3.37;;;3.17;;
76788;SDS011;65740;52.464;13.446;2023-02-03T00:06:34;3.50;;;3.23;;
76788;SDS011;65740;52.464;13.446;2023-02-03T00:09:00;3.57;;;3.23;;
76788;SDS011;65740;52.464;13.446;2023-02-03T00:11:26;3.23;;;2.93;;
76788;SDS011;65740;52.464;13.446;2023-02-03T00:13:54;3.57;;;3.27;;
76788;SDS011;65740;52.464;13.446;2023-02-03T00:16:20;4.67;;;3.70;;
76788;SDS011;65740;52.464;13.446;2023-02-03T00:18:45;3.67;;;3.40;;
76788;SDS011;65740;52.464;13.446;2023-02-03T00:21:11;3.43;;;3.23;;
76788;SDS011;65740;52.464;13.446;2023-02-03T00:23:39;3.30;;;3.10;;
76788;SDS011;65740;52.464;13.446;2023-02-03T00:26:08;3.50;;;3.30;;
76788;SDS011;65740;52.464;13.446;2023-02-03T00:28:35;3.43;;;3.23;;
76788;SDS011;65740;52.464;13.446;2023-02-03T00:31:01;3.27;;;3.07;;
76788;SDS011;65740;52.464;13.446;2023-02-03T00:33:27;3.40;;;3.20;;
76788;SDS011;65740;52.464;13.446;2023-02-03T00:35:53;3.43;;;3.13;;
76788;SDS011;65740;52.464;13.446;2023-02-03T00:38:18;3.33;;;3.03;;
76788;SDS011;65740;52.464;13.446;2023-02-03T00:40:50;3.20;;;3.00;;
76788;SDS011;65740;52.464;13.446;2023-02-03T00:43:17;3.97;;;3.67;;
76788;SDS011;65740;52.464;13.446;2023-02-03T00:45:43;3.53;;;3.33;;
76788;SDS011;65740;52.464;13.446;2023-02-03T00:48:09;3.40;;;3.10;;
76788;SDS011;65740;52.464;13.446;2023-02-03T00:50:34;3.80;;;3.50;;
76788;SDS011;65740;52.464;13.446;2023-02-03T00:53:00;3.27;;;3.07;;
76788;SDS011;65740;52.464;13.446;2023-02-03T00:55:26;3.60;;;3.40;;
76788;SDS011;65740;52.464;13.446;2023-02-03T00:57:51;3.43;;;3.23;;
76788;SDS011;65740;52.464;13.446;2023-02-03T01:00:17;3.90;;;3.60;;
76788;SDS011;65740;52.464;13.446;2023-02-03T01:02:43;3.60;;;3.40;;
76788;SDS011;65740;52.464;13.446;2023-02-03T01:05:09;3.53;;;3.33;;
76788;SDS011;65740;52.464;13.446;2023-02-03T01:07:35;3.50;;;3.30;;
76788;SDS011;65740;52.464;13.446;2023-02-03T01:10:00;3.73;;;3.40;;
76788;SDS011;65740;52.464;13.446;2023-02-03T01:12:29;3.47;;;3.27;;
76788;SDS011;65740;52.464;13.446;2023-02-03T01:14:55;3.50;;;3.30;;
76788;SDS011;65740;52.464;13.446;2023-02-03T01:17:21;3.90;;;3.33;;
76788;SDS011;65740;52.464;13.446;2023-02-03T01:19:47;3.67;;;3.40;;
76788;SDS011;65740;52.464;13.446;2023-02-03T01:22:15;3.30;;;3.10;;
76788;SDS011;65740;52.464;13.446;2023-02-03T01:24:41;3.90;;;3.60;;
76788;SDS011;65740;52.464;13.446;2023-02-03T01:27:06;3.10;;;2.70;;
76788;SDS011;65740;52.464;13.446;2023-02-03T01:29:32;3.77;;;3.57;;
76788;SDS011;65740;52.464;13.446;2023-02-03T01:31:58;3.90;;;3.60;;
76788;SDS011;65740;52.464;13.446;2023-02-03T01:34:23;3.47;;;3.27;;
76788;SDS011;65740;52.464;13.446;2023-02-03T01:36:49;3.23;;;3.03;;
76788;SDS011;65740;52.464;13.446;2023-02-03T01:39:15;3.63;;;3.33;;
76788;SDS011;65740;52.464;13.446;2023-02-03T01:41:40;3.23;;;3.03;;
76788;SDS011;65740;52.464;13.446;2023-02-03T01:49:54;3.57;;;3.33;;
76788;SDS011;65740;52.464;13.446;2023-02-03T01:52:40;3.80;;;3.50;;
76788;SDS011;65740;52.464;13.446;2023-02-03T01:55:09;3.50;;;3.30;;
76788;SDS011;65740;52.464;13.446;2023-02-03T01:57:39;3.67;;;3.37;;
76788;SDS011;65740;52.464;13.446;2023-02-03T02:00:09;3.40;;;3.20;;
76788;SDS011;65740;52.464;13.446;2023-02-03T02:02:36;3.43;;;3.23;;
76788;SDS011;65740;52.464;13.446;2023-02-03T02:05:03;3.30;;;3.10;;
76788;SDS011;65740;52.464;13.446;2023-02-03T02:07:35;3.60;;;3.40;;
76788;SDS011;65740;52.464;13.446;2023-02-03T02:10:03;4.07;;;3.77;;
76788;SDS011;65740;52.464;13.446;2023-02-03T02:12:29;3.10;;;2.90;;
76788;SDS011;65740;52.464;13.446;2023-02-03T02:14:55;3.30;;;3.10;;
76788;SDS011;65740;52.464;13.446;2023-02-03T02:34:27;3.37;;;3.17;;
76788;SDS011;65740;52.464;13.446;2023-02-03T02:39:45;3.53;;;3.33;;
76788;SDS011;65740;52.464;13.446;2023-02-03T02:42:38;4.20;;;3.90;;
76788;SDS011;65740;52.464;13.446;2023-02-03T02:45:16;3.30;;;3.10;;
76788;SDS011;65740;52.464;13.446;2023-02-03T02:48:08;3.60;;;3.40;;
76788;SDS011;65740;52.464;13.446;2023-02-03T02:50:59;3.30;;;3.10;;
76788;SDS011;65740;52.464;13.446;2023-02-03T02:53:28;3.27;;;3.07;;
76788;SDS011;65740;52.464;13.446;2023-02-03T02:55:57;3.57;;;3.37;;
76788;SDS011;65740;52.464;13.446;2023-02-03T02:58:27;3.20;;;2.93;;
76788;SDS011;65740;52.464;13.446;2023-02-03T03:00:56;3.70;;;3.50;;
76788;SDS011;65740;52.464;13.446;2023-02-03T03:03:22;3.50;;;3.30;;
76788;SDS011;65740;52.464;13.446;2023-02-03T03:05:53;3.10;;;2.90;;
76788;SDS011;65740;52.464;13.446;2023-02-03T03:08:27;4.07;;;3.77;;
76788;SDS011;65740;52.464;13.446;2023-02-03T03:11:02;3.83;;;3.53;;
76788;SDS011;65740;52.464;13.446;2023-02-03T03:13:31;3.60;;;3.40;;
76788;SDS011;65740;52.464;13.446;2023-02-03T03:15:59;3.10;;;2.90;;
76788;SDS011;65740;52.464;13.446;2023-02-03T03:18:29;3.47;;;3.27;;
76788;SDS011;65740;52.464;13.446;2023-02-03T03:21:00;3.23;;;3.03;;
76788;SDS011;65740;52.464;13.446;2023-02-03T03:23:39;3.57;;;3.37;;
76788;SDS011;65740;52.464;13.446;2023-02-03T03:26:13;3.00;;;2.80;;
76788;SDS011;65740;52.464;13.446;2023-02-03T03:28:47;3.07;;;2.87;;
76788;SDS011;65740;52.464;13.446;2023-02-03T03:31:16;2.90;;;2.80;;
76788;SDS011;65740;52.464;13.446;2023-02-03T03:33:43;3.10;;;2.90;;
76788;SDS011;65740;52.464;13.446;2023-02-03T03:39:00;3.07;;;2.87;;
76788;SDS011;65740;52.464;13.446;2023-02-03T03:44:04;2.90;;;2.80;;
76788;SDS011;65740;52.464;13.446;2023-02-03T03:46:48;3.50;;;3.10;;
76788;SDS011;65740;52.464;13.446;2023-02-03T03:49:19;2.70;;;2.60;;
76788;SDS011;65740;52.464;13.446;2023-02-03T03:51:50;3.30;;;3.10;;
76788;SDS011;65740;52.464;13.446;2023-02-03T03:54:20;2.80;;;2.70;;
76788;SDS011;65740;52.464;13.446;2023-02-03T03:56:49;2.80;;;2.60;;
76788;SDS011;65740;52.464;13.446;2023-02-03T03:59:19;2.90;;;2.70;;
76788;SDS011;65740;52.464;13.446;2023-02-03T04:01:48;2.90;;;2.70;;
76788;SDS011;65740;52.464;13.446;2023-02-03T04:04:15;2.70;;;2.60;;
76788;SDS011;65740;52.464;13.446;2023-02-03T04:06:42;3.47;;;3.27;;
76788;SDS011;65740;52.464;13.446;2023-02-03T04:09:07;3.10;;;2.90;;
76788;SDS011;65740;52.464;13.446;2023-02-03T04:11:33;3.07;;;2.87;;
76788;SDS011;65740;52.464;13.446;2023-02-03T04:14:17;2.50;;;2.40;;
76788;SDS011;65740;52.464;13.446;2023-02-03T04:16:43;2.70;;;2.60;;
76788;SDS011;65740;52.464;13.446;2023-02-03T04:19:08;2.53;;;2.43;;
76788;SDS011;65740;52.464;13.446;2023-02-03T04:21:34;2.93;;;2.73;;
76788;SDS011;65740;52.464;13.446;2023-02-03T04:24:00;3.10;;;2.90;;
76788;SDS011;65740;52.464;13.446;2023-02-03T04:26:25;3.23;;;3.03;;
76788;SDS011;65740;52.464;13.446;2023-02-03T04:28:51;2.87;;;2.77;;
76788;SDS011;65740;52.464;13.446;2023-02-03T04:31:16;2.90;;;2.70;;
76788;SDS011;65740;52.464;13.446;2023-02-03T04:33:42;2.90;;;2.80;;
76788;SDS011;65740;52.464;13.446;2023-02-03T04:36:08;2.70;;;2.60;;
76788;SDS011;65740;52.464;13.446;2023-02-03T04:38:34;2.97;;;2.77;;
76788;SDS011;65740;52.464;13.446;2023-02-03T04:40:59;2.97;;;2.83;;
76788;SDS011;65740;52.464;13.446;2023-02-03T04:43:25;2.83;;;2.70;;
76788;SDS011;65740;52.464;13.446;2023-02-03T04:45:51;3.20;;;3.00;;
76788;SDS011;65740;52.464;13.446;2023-02-03T04:48:16;2.60;;;2.50;;
76788;SDS011;65740;52.464;13.446;2023-02-03T04:50:42;3.13;;;3.00;;
76788;SDS011;65740;52.464;13.446;2023-02-03T04:53:08;3.77;;;2.57;;
76788;SDS011;65740;52.464;13.446;2023-02-03T04:55:33;2.80;;;2.70;;
76788;SDS011;65740;52.464;13.446;2023-02-03T04:57:59;2.83;;;2.63;;
76788;SDS011;65740;52.464;13.446;2023-02-03T05:00:25;2.27;;;2.17;;
76788;SDS011;65740;52.464;13.446;2023-02-03T05:02:52;2.30;;;2.13;;
76788;SDS011;65740;52.464;13.446;2023-02-03T05:05:19;2.90;;;2.70;;
76788;SDS011;65740;52.464;13.446;2023-02-03T05:07:44;2.50;;;2.40;;
76788;SDS011;65740;52.464;13.446;2023-02-03T05:10:10;2.53;;;2.43;;
76788;SDS011;65740;52.464;13.446;2023-02-03T05:12:35;3.00;;;2.90;;
76788;SDS011;65740;52.464;13.446;2023-02-03T05:15:01;2.53;;;2.43;;
76788;SDS011;65740;52.464;13.446;2023-02-03T05:17:27;2.87;;;2.67;;
76788;SDS011;65740;52.464;13.446;2023-02-03T05:19:52;2.77;;;2.67;;
76788;SDS011;65740;52.464;13.446;2023-02-03T05:22:18;2.27;;;2.17;;
76788;SDS011;65740;52.464;13.446;2023-02-03T05:24:44;2.67;;;2.47;;
76788;SDS011;65740;52.464;13.446;2023-02-03T05:27:09;2.03;;;1.93;;
76788;SDS011;65740;52.464;13.446;2023-02-03T05:29:35;2.33;;;2.23;;
76788;SDS011;65740;52.464;13.446;2023-02-03T05:32:00;2.60;;;2.40;;
76788;SDS011;65740;52.464;13.446;2023-02-03T05:34:26;2.60;;;2.50;;
76788;SDS011;65740;52.464;13.446;2023-02-03T05:36:52;2.20;;;2.10;;
76788;SDS011;65740;52.464;13.446;2023-02-03T05:39:17;2.90;;;2.70;;
76788;SDS011;65740;52.464;13.446;2023-02-03T05:41:43;3.00;;;2.80;;
76788;SDS011;65740;52.464;13.446;2023-02-03T05:44:21;2.63;;;2.53;;
76788;SDS011;65740;52.464;13.446;2023-02-03T05:46:49;2.40;;;2.30;;
76788;SDS011;65740;52.464;13.446;2023-02-03T05:49:16;2.70;;;2.60;;
76788;SDS011;65740;52.464;13.446;2023-02-03T05:51:43;2.77;;;2.67;;
76788;SDS011;65740;52.464;13.446;2023-02-03T05:54:09;2.27;;;2.17;;
76788;SDS011;65740;52.464;13.446;2023-02-03T05:56:35;2.37;;;2.27;;
76788;SDS011;65740;52.464;13.446;2023-02-03T05:59:01;2.70;;;2.60;;
76788;SDS011;65740;52.464;13.446;2023-02-03T06:01:27;2.60;;;2.50;;
76788;SDS011;65740;52.464;13.446;2023-02-03T06:03:53;2.80;;;2.70;;
76788;SDS011;65740;52.464;13.446;2023-02-03T06:06:18;2.50;;;2.37;;
76788;SDS011;65740;52.464;13.446;2023-02-03T06:08:44;2.90;;;2.70;;
76788;SDS011;65740;52.464;13.446;2023-02-03T06:11:10;2.50;;;2.30;;
76788;SDS011;65740;52.464;13.446;2023-02-03T06:13:36;2.83;;;2.70;;
76788;SDS011;65740;52.464;13.446;2023-02-03T06:16:01;2.60;;;2.50;;
76788;SDS011;65740;52.464;13.446;2023-02-03T06:18:27;2.70;;;2.60;;
76788;SDS011;65740;52.464;13.446;2023-02-03T06:20:53;2.87;;;2.77;;
76788;SDS011;65740;52.464;13.446;2023-02-03T06:23:19;2.83;;;2.73;;
76788;SDS011;65740;52.464;13.446;2023-02-03T06:25:48;2.70;;;2.60;;
76788;SDS011;65740;52.464;13.446;2023-02-03T06:28:15;2.67;;;2.57;;
76788;SDS011;65740;52.464;13.446;2023-02-03T06:30:41;2.97;;;2.87;;
76788;SDS011;65740;52.464;13.446;2023-02-03T06:33:06;2.30;;;2.20;;
76788;SDS011;65740;52.464;13.446;2023-02-03T06:35:32;2.70;;;2.60;;
76788;SDS011;65740;52.464;13.446;2023-02-03T06:37:58;2.30;;;2.20;;
76788;SDS011;65740;52.464;13.446;2023-02-03T06:40:24;2.63;;;2.53;;
76788;SDS011;65740;52.464;13.446;2023-02-03T06:42:49;3.03;;;2.90;;
76788;SDS011;65740;52.464;13.446;2023-02-03T06:45:15;3.03;;;2.93;;
76788;SDS011;65740;52.464;13.446;2023-02-03T06:47:42;2.67;;;2.57;;
76788;SDS011;65740;52.464;13.446;2023-02-03T06:50:09;2.60;;;2.50;;
76788;SDS011;65740;52.464;13.446;2023-02-03T06:52:40;2.70;;;2.60;;
76788;SDS011;65740;52.464;13.446;2023-02-03T06:55:06;2.80;;;2.70;;
76788;SDS011;65740;52.464;13.446;2023-02-03T06:57:32;2.63;;;2.53;;
76788;SDS011;65740;52.464;13.446;2023-02-03T06:59:58;2.90;;;2.80;;
76788;SDS011;65740;52.464;13.446;2023-02-03T07:02:23;2.23;;;2.13;;
76788;SDS011;65740;52.464;13.446;2023-02-03T07:04:49;2.90;;;2.70;;
76788;SDS011;65740;52.464;13.446;2023-02-03T07:07:15;2.50;;;2.40;;
76788;SDS011;65740;52.464;13.446;2023-02-03T07:09:41;2.93;;;2.73;;
76788;SDS011;65740;52.464;13.446;2023-02-03T07:12:07;3.17;;;3.07;;
76788;SDS011;65740;52.464;13.446;2023-02-03T07:14:33;3.07;;;2.97;;
76788;SDS011;65740;52.464;13.446;2023-02-03T07:17:03;4.40;;;3.10;;
76788;SDS011;65740;52.464;13.446;2023-02-03T07:19:29;2.60;;;2.50;;
76788;SDS011;65740;52.464;13.446;2023-02-03T07:21:55;2.83;;;2.73;;
76788;SDS011;65740;52.464;13.446;2023-02-03T07:24:20;3.07;;;2.87;;
76788;SDS011;65740;52.464;13.446;2023-02-03T07:26:46;2.90;;;2.80;;
76788;SDS011;65740;52.464;13.446;2023-02-03T07:29:12;3.10;;;3.00;;
76788;SDS011;65740;52.464;13.446;2023-02-03T07:31:37;3.30;;;3.20;;
76788;SDS011;65740;52.464;13.446;2023-02-03T07:34:03;3.00;;;2.90;;
76788;SDS011;65740;52.464;13.446;2023-02-03T07:36:29;3.50;;;3.40;;
76788;SDS011;65740;52.464;13.446;2023-02-03T07:38:54;3.10;;;3.00;;
76788;SDS011;65740;52.464;13.446;2023-02-03T07:41:20;3.10;;;2.90;;
76788;SDS011;65740;52.464;13.446;2023-02-03T07:43:46;3.00;;;2.90;;
76788;SDS011;65740;52.464;13.446;2023-02-03T07:46:11;3.30;;;3.10;;
76788;SDS011;65740;52.464;13.446;2023-02-03T07:48:37;2.87;;;2.77;;
76788;SDS011;65740;52.464;13.446;2023-02-03T07:51:03;3.17;;;3.07;;
76788;SDS011;65740;52.464;13.446;2023-02-03T07:53:29;2.40;;;2.30;;
76788;SDS011;65740;52.464;13.446;2023-02-03T07:55:58;2.63;;;2.53;;
76788;SDS011;65740;52.464;13.446;2023-02-03T07:58:28;3.00;;;2.80;;
76788;SDS011;65740;52.464;13.446;2023-02-03T08:00:55;3.00;;;2.80;;
76788;SDS011;65740;52.464;13.446;2023-02-03T08:03:20;3.00;;;2.87;;
76788;SDS011;65740;52.464;13.446;2023-02-03T08:05:46;3.10;;;3.00;;
76788;SDS011;65740;52.464;13.446;2023-02-03T08:08:12;2.77;;;2.67;;
76788;SDS011;65740;52.464;13.446;2023-02-03T08:10:38;2.60;;;2.50;;
76788;SDS011;65740;52.464;13.446;2023-02-03T08:13:03;2.90;;;2.80;;
76788;SDS011;65740;52.464;13.446;2023-02-03T08:15:29;3.00;;;2.90;;
76788;SDS011;65740;52.464;13.446;2023-02-03T08:17:54;2.97;;;2.87;;
76788;SDS011;65740;52.464;13.446;2023-02-03T08:20:20;2.77;;;2.60;;
76788;SDS011;65740;52.464;13.446;2023-02-03T08:22:46;2.80;;;2.60;;
76788;SDS011;65740;52.464;13.446;2023-02-03T08:25:11;2.80;;;2.70;;
76788;SDS011;65740;52.464;13.446;2023-02-03T08:27:37;2.90;;;2.80;;
76788;SDS011;65740;52.464;13.446;2023-02-03T08:30:04;2.53;;;2.43;;
76788;SDS011;65740;52.464;13.446;2023-02-03T08:32:31;3.20;;;3.00;;
76788;SDS011;65740;52.464;13.446;2023-02-03T08:34:57;3.07;;;2.97;;
76788;SDS011;65740;52.464;13.446;2023-02-03T08:37:23;2.80;;;2.70;;
76788;SDS011;65740;52.464;13.446;2023-02-03T08:39:49;2.43;;;2.30;;
76788;SDS011;65740;52.464;13.446;2023-02-03T08:42:15;3.00;;;2.80;;
76788;SDS011;65740;52.464;13.446;2023-02-03T08:44:41;2.73;;;2.53;;
76788;SDS011;65740;52.464;13.446;2023-02-03T08:47:08;2.83;;;2.73;;
76788;SDS011;65740;52.464;13.446;2023-02-03T08:49:35;3.10;;;3.00;;
76788;SDS011;65740;52.464;13.446;2023-02-03T08:52:03;2.53;;;2.43;;
76788;SDS011;65740;52.464;13.446;2023-02-03T08:54:30;2.70;;;2.60;;
76788;SDS011;65740;52.464;13.446;2023-02-03T08:56:56;2.53;;;2.43;;
76788;SDS011;65740;52.464;13.446;2023-02-03T08:59:22;2.40;;;2.30;;
76788;SDS011;65740;52.464;13.446;2023-02-03T09:01:48;3.70;;;3.03;;
76788;SDS011;65740;52.464;13.446;2023-02-03T09:04:15;2.60;;;2.50;;
76788;SDS011;65740;52.464;13.446;2023-02-03T09:06:49;2.97;;;2.87;;
76788;SDS011;65740;52.464;13.446;2023-02-03T09:09:15;2.83;;;2.70;;
76788;SDS011;65740;52.464;13.446;2023-02-03T09:11:41;2.60;;;2.50;;
76788;SDS011;65740;52.464;13.446;2023-02-03T09:14:07;3.00;;;2.90;;
76788;SDS011;65740;52.464;13.446;2023-02-03T09:16:33;3.00;;;2.90;;
76788;SDS011;65740;52.464;13.446;2023-02-03T09:18:59;2.67;;;2.57;;
76788;SDS011;65740;52.464;13.446;2023-02-03T09:21:25;2.80;;;2.60;;
76788;SDS011;65740;52.464;13.446;2023-02-03T09:23:51;3.07;;;2.97;;
76788;SDS011;65740;52.464;13.446;2023-02-03T09:26:16;2.80;;;2.43;;
76788;SDS011;65740;52.464;13.446;2023-02-03T09:28:42;2.80;;;2.70;;
76788;SDS011;65740;52.464;13.446;2023-02-03T09:31:09;2.23;;;2.13;;
76788;SDS011;65740;52.464;13.446;2023-02-03T09:33:39;2.60;;;2.50;;
76788;SDS011;65740;52.464;13.446;2023-02-03T09:36:06;2.83;;;2.70;;
76788;SDS011;65740;52.464;13.446;2023-02-03T09:38:32;2.90;;;2.80;;
76788;SDS011;65740;52.464;13.446;2023-02-03T09:46:41;3.27;;;3.10;;
76788;SDS011;65740;52.464;13.446;2023-02-03T09:49:17;2.60;;;2.50;;
76788;SDS011;65740;52.464;13.446;2023-02-03T09:52:01;3.00;;;2.73;;
76788;SDS011;65740;52.464;13.446;2023-02-03T09:57:26;2.50;;;2.40;;
76788;SDS011;65740;52.464;13.446;2023-02-03T09:59:55;2.57;;;2.47;;
76788;SDS011;65740;52.464;13.446;2023-02-03T10:07:49;3.20;;;2.90;;
76788;SDS011;65740;52.464;13.446;2023-02-03T10:16:22;3.10;;;2.97;;
76788;SDS011;65740;52.464;13.446;2023-02-03T10:19:08;3.53;;;2.43;;
76788;SDS011;65740;52.464;13.446;2023-02-03T10:21:45;2.77;;;2.67;;
76788;SDS011;65740;52.464;13.446;2023-02-03T10:24:18;3.03;;;2.60;;
76788;SDS011;65740;52.464;13.446;2023-02-03T10:26:50;2.87;;;2.60;;
76788;SDS011;65740;52.464;13.446;2023-02-03T10:29:25;4.03;;;2.50;;
76788;SDS011;65740;52.464;13.446;2023-02-03T10:32:10;2.57;;;2.37;;
76788;SDS011;65740;52.464;13.446;2023-02-03T10:34:36;2.60;;;2.40;;
76788;SDS011;65740;52.464;13.446;2023-02-03T10:37:48;3.90;;;2.43;;
76788;SDS011;65740;52.464;13.446;2023-02-03T10:39:56;2.63;;;2.43;;
76788;SDS011;65740;52.464;13.446;2023-02-03T10:42:25;3.07;;;2.50;;
76788;SDS011;65740;52.464;13.446;2023-02-03T10:45:12;2.53;;;2.43;;
76788;SDS011;65740;52.464;13.446;2023-02-03T10:47:40;3.20;;;2.90;;
76788;SDS011;65740;52.464;13.446;2023-02-03T10:50:26;3.30;;;3.07;;
76788;SDS011;65740;52.464;13.446;2023-02-03T10:55:48;2.70;;;2.60;;
76788;SDS011;65740;52.464;13.446;2023-02-03T10:58:25;2.90;;;2.70;;
76788;SDS011;65740;52.464;13.446;2023-02-03T11:00:55;2.73;;;2.63;;
76788;SDS011;65740;52.464;13.446;2023-02-03T11:03:29;3.30;;;3.03;;
76788;SDS011;65740;52.464;13.446;2023-02-03T11:08:35;3.10;;;2.80;;
76788;SDS011;65740;52.464;13.446;2023-02-03T11:11:03;3.53;;;2.90;;
76788;SDS011;65740;52.464;13.446;2023-02-03T11:13:34;4.87;;;3.10;;
76788;SDS011;65740;52.464;13.446;2023-02-03T11:16:04;2.90;;;2.47;;
76788;SDS011;65740;52.464;13.446;2023-02-03T11:21:22;3.20;;;3.00;;
76788;SDS011;65740;52.464;13.446;2023-02-03T11:27:02;2.90;;;2.70;;
76788;SDS011;65740;52.464;13.446;2023-02-03T11:29:36;2.83;;;2.63;;
76788;SDS011;65740;52.464;13.446;2023-02-03T11:42:32;2.70;;;2.47;;
76788;SDS011;65740;52.464;13.446;2023-02-03T11:45:16;2.73;;;2.43;;
76788;SDS011;65740;52.464;13.446;2023-02-03T11:47:51;3.20;;;3.00;;
76788;SDS011;65740;52.464;13.446;2023-02-03T11:50:30;3.30;;;2.80;;
76788;SDS011;65740;52.464;13.446;2023-02-03T11:58:54;3.30;;;2.57;;
76788;SDS011;65740;52.464;13.446;2023-02-03T12:01:45;4.27;;;2.63;;
76788;SDS011;65740;52.464;13.446;2023-02-03T12:18:04;3.43;;;2.77;;
76788;SDS011;65740;52.464;13.446;2023-02-03T12:21:06;3.40;;;2.80;;
76788;SDS011;65740;52.464;13.446;2023-02-03T12:23:51;2.70;;;2.60;;
76788;SDS011;65740;52.464;13.446;2023-02-03T12:26:24;3.13;;;2.93;;
76788;SDS011;65740;52.464;13.446;2023-02-03T12:29:03;3.33;;;3.13;;
76788;SDS011;65740;52.464;13.446;2023-02-03T12:31:48;3.40;;;3.10;;
76788;SDS011;65740;52.464;13.446;2023-02-03T12:34:23;3.00;;;2.80;;
76788;SDS011;65740;52.464;13.446;2023-02-03T12:36:57;2.90;;;2.70;;
76788;SDS011;65740;52.464;13.446;2023-02-03T12:39:30;3.33;;;3.10;;
76788;SDS011;65740;52.464;13.446;2023-02-03T12:44:46;3.20;;;3.00;;
76788;SDS011;65740;52.464;13.446;2023-02-03T12:47:27;3.27;;;3.07;;
76788;SDS011;65740;52.464;13.446;2023-02-03T12:50:52;3.90;;;2.80;;
76788;SDS011;65740;52.464;13.446;2023-02-03T12:53:16;3.40;;;3.10;;
76788;SDS011;65740;52.464;13.446;2023-02-03T12:55:46;4.03;;;3.40;;
76788;SDS011;65740;52.464;13.446;2023-02-03T12:58:30;3.83;;;3.50;;
76788;SDS011;65740;52.464;13.446;2023-02-03T13:01:03;3.33;;;3.10;;
76788;SDS011;65740;52.464;13.446;2023-02-03T13:03:48;3.40;;;3.10;;
76788;SDS011;65740;52.464;13.446;2023-02-03T13:14:47;4.00;;;3.03;;
76788;SDS011;65740;52.464;13.446;2023-02-03T13:17:23;3.70;;;3.40;;
76788;SDS011;65740;52.464;13.446;2023-02-03T13:19:56;3.70;;;3.40;;
76788;SDS011;65740;52.464;13.446;2023-02-03T13:22:24;3.30;;;3.00;;
76788;SDS011;65740;52.464;13.446;2023-02-03T13:27:45;3.53;;;3.23;;
76788;SDS011;65740;52.464;13.446;2023-02-03T13:36:14;5.90;;;3.10;;
76788;SDS011;65740;52.464;13.446;2023-02-03T13:42:18;4.17;;;3.07;;
76788;SDS011;65740;52.464;13.446;2023-02-03T13:44:52;3.73;;;3.43;;
76788;SDS011;65740;52.464;13.446;2023-02-03T13:47:39;4.03;;;3.63;;
76788;SDS011;65740;52.464;13.446;2023-02-03T13:50:25;3.40;;;3.10;;
76788;SDS011;65740;52.464;13.446;2023-02-03T13:53:00;4.43;;;4.03;;
76788;SDS011;65740;52.464;13.446;2023-02-03T13:55:36;3.83;;;3.53;;
76788;SDS011;65740;52.464;13.446;2023-02-03T13:58:04;4.90;;;4.50;;
76788;SDS011;65740;52.464;13.446;2023-02-03T14:03:39;5.13;;;4.00;;
76788;SDS011;65740;52.464;13.446;2023-02-03T14:06:09;4.13;;;3.43;;
76788;SDS011;65740;52.464;13.446;2023-02-03T14:09:00;4.40;;;4.00;;
76788;SDS011;65740;52.464;13.446;2023-02-03T14:19:09;4.10;;;3.80;;
76788;SDS011;65740;52.464;13.446;2023-02-03T14:24:12;5.00;;;4.50;;
76788;SDS011;65740;52.464;13.446;2023-02-03T14:29:07;4.23;;;3.87;;
76788;SDS011;65740;52.464;13.446;2023-02-03T14:31:54;4.90;;;4.40;;
76788;SDS011;65740;52.464;13.446;2023-02-03T14:37:07;4.20;;;3.70;;
76788;SDS011;65740;52.464;13.446;2023-02-03T14:40:00;6.30;;;3.87;;
76788;SDS011;65740;52.464;13.446;2023-02-03T14:54:03;5.43;;;4.93;;
76788;SDS011;65740;52.464;13.446;2023-02-03T14:57:45;4.27;;;3.90;;
76788;SDS011;65740;52.464;13.446;2023-02-03T15:00:04;5.47;;;4.03;;
76788;SDS011;65740;52.464;13.446;2023-02-03T15:02:30;5.40;;;4.27;;
76788;SDS011;65740;52.464;13.446;2023-02-03T15:07:39;6.07;;;4.33;;
76788;SDS011;65740;52.464;13.446;2023-02-03T15:12:47;4.47;;;4.00;;
76788;SDS011;65740;52.464;13.446;2023-02-03T15:17:54;5.33;;;4.13;;
76788;SDS011;65740;52.464;13.446;2023-02-03T15:20:30;7.20;;;4.17;;
76788;SDS011;65740;52.464;13.446;2023-02-03T15:23:51;5.63;;;4.37;;
76788;SDS011;65740;52.464;13.446;2023-02-03T15:26:07;5.97;;;3.90;;
76788;SDS011;65740;52.464;13.446;2023-02-03T15:28:36;4.97;;;3.77;;
76788;SDS011;65740;52.464;13.446;2023-02-03T15:31:14;5.07;;;3.80;;
76788;SDS011;65740;52.464;13.446;2023-02-03T15:33:43;4.33;;;3.90;;
76788;SDS011;65740;52.464;13.446;2023-02-03T15:36:26;3.93;;;3.53;;
76788;SDS011;65740;52.464;13.446;2023-02-03T15:39:07;4.33;;;3.90;;
76788;SDS011;65740;52.464;13.446;2023-02-03T15:41:35;4.47;;;4.07;;
76788;SDS011;65740;52.464;13.446;2023-02-03T15:44:02;4.60;;;4.20;;
76788;SDS011;65740;52.464;13.446;2023-02-03T15:46:34;6.30;;;3.93;;
76788;SDS011;65740;52.464;13.446;2023-02-03T15:49:09;5.80;;;4.00;;
76788;SDS011;65740;52.464;13.446;2023-02-03T15:54:20;3.80;;;3.23;;
76788;SDS011;65740;52.464;13.446;2023-02-03T15:57:09;6.60;;;4.00;;
76788;SDS011;65740;52.464;13.446;2023-02-03T15:59:45;4.13;;;3.57;;
76788;SDS011;65740;52.464;13.446;2023-02-03T16:04:51;4.30;;;3.90;;
76788;SDS011;65740;52.464;13.446;2023-02-03T16:07:24;5.00;;;3.80;;
76788;SDS011;65740;52.464;13.446;2023-02-03T16:09:53;3.77;;;3.10;;
76788;SDS011;65740;52.464;13.446;2023-02-03T16:14:53;3.87;;;3.40;;
76788;SDS011;65740;52.464;13.446;2023-02-03T16:22:37;5.60;;;4.10;;
76788;SDS011;65740;52.464;13.446;2023-02-03T16:25:11;6.33;;;3.90;;
76788;SDS011;65740;52.464;13.446;2023-02-03T16:27:37;5.03;;;3.50;;
76788;SDS011;65740;52.464;13.446;2023-02-03T16:35:53;4.73;;;4.10;;
76788;SDS011;65740;52.464;13.446;2023-02-03T16:38:43;5.37;;;3.83;;
76788;SDS011;65740;52.464;13.446;2023-02-03T16:41:31;4.90;;;3.80;;
76788;SDS011;65740;52.464;13.446;2023-02-03T16:44:16;4.47;;;4.00;;
76788;SDS011;65740;52.464;13.446;2023-02-03T16:47:00;4.03;;;3.73;;
76788;SDS011;65740;52.464;13.446;2023-02-03T16:49:45;6.13;;;3.43;;
76788;SDS011;65740;52.464;13.446;2023-02-03T16:52:30;4.23;;;3.77;;
76788;SDS011;65740;52.464;13.446;2023-02-03T16:54:56;4.10;;;3.30;;
76788;SDS011;65740;52.464;13.446;2023-02-03T16:57:22;5.20;;;3.67;;
76788;SDS011;65740;52.464;13.446;2023-02-03T16:59:47;4.17;;;3.67;;
76788;SDS011;65740;52.464;13.446;2023-02-03T17:02:13;4.73;;;3.70;;
76788;SDS011;65740;52.464;13.446;2023-02-03T17:04:38;4.60;;;4.00;;
76788;SDS011;65740;52.464;13.446;2023-02-03T17:07:04;4.40;;;4.00;;
76788;SDS011;65740;52.464;13.446;2023-02-03T17:09:30;4.27;;;3.97;;
76788;SDS011;65740;52.464;13.446;2023-02-03T17:11:59;4.03;;;3.63;;
76788;SDS011;65740;52.464;13.446;2023-02-03T17:14:28;5.63;;;4.23;;
76788;SDS011;65740;52.464;13.446;2023-02-03T17:16:54;6.57;;;4.10;;
76788;SDS011;65740;52.464;13.446;2023-02-03T17:19:20;4.60;;;3.43;;
76788;SDS011;65740;52.464;13.446;2023-02-03T17:21:46;4.17;;;3.77;;
76788;SDS011;65740;52.464;13.446;2023-02-03T17:24:12;4.70;;;4.10;;
76788;SDS011;65740;52.464;13.446;2023-02-03T17:26:38;3.97;;;3.53;;
76788;SDS011;65740;52.464;13.446;2023-02-03T17:29:04;6.63;;;4.10;;
76788;SDS011;65740;52.464;13.446;2023-02-03T17:31:30;4.43;;;3.33;;
76788;SDS011;65740;52.464;13.446;2023-02-03T17:33:56;5.37;;;4.30;;
76788;SDS011;65740;52.464;13.446;2023-02-03T17:36:22;4.60;;;3.93;;
76788;SDS011;65740;52.464;13.446;2023-02-03T17:38:49;6.77;;;4.27;;
76788;SDS011;65740;52.464;13.446;2023-02-03T17:41:17;5.87;;;3.83;;
76788;SDS011;65740;52.464;13.446;2023-02-03T17:43:44;5.13;;;3.63;;